Monday, November 20, 2017, 2:06 PM EST
Back to Local

KMSS, Massena International -richards Fld

Location: Massena, NY, United States Lat: 44.933
Local Time: 2:06 PM EST (19:06 GMT) Lon: -74.85
Time Zone: US/Eastern Elev: 213 ft

Show me the last for .
Show Decoded

2017-11-20 13:53 METAR KMSS 201853Z AUTO 27009KT 10SM SCT020 OVC055 M04/M07 A2993 RMK AO2 SLP142
                 T10391072 =
2017-11-20 13:51 METAR KMSS 201851Z AUTO 26006KT 10SM SCT020 OVC055 M04/M08 A2993 RMK AO2 =
2017-11-20 13:05 METAR KMSS 201805Z AUTO 24006KT 10SM SCT019 BKN024 OVC060 M04/M07 A2992 RMK AO2
                 T10441072 =
2017-11-20 12:53 METAR KMSS 201753Z AUTO 25006KT 10SM FEW018 BKN034 OVC060 M04/M07 A2992 RMK AO2
                 SNE46 SLP139 P0000 60000 T10441072 11044 21067 58003 =
2017-11-20 12:36 METAR KMSS 201736Z AUTO 25005KT 6SM -SN BR SCT030 BKN042 OVC060 M05/M07 A2992
                 RMK AO2 P0000 T10501072 =
2017-11-20 12:16 METAR KMSS 201716Z AUTO 22008KT 3SM -SN BR BKN023 OVC040 M05/M07 A2992 RMK AO2
                 P0000 T10501067 =
2017-11-20 12:08 METAR KMSS 201708Z AUTO 23006KT 1 3/4SM -SN BR OVC021 M06/M07 A2993 RMK AO2
                 P0000 T10561072 =
2017-11-20 12:00 METAR KMSS 201700Z AUTO 24007KT 1 1/4SM -SN BR OVC021 M06/M07 A2993 RMK AO2
                 P0000 T10561072 =
2017-11-20 11:53 METAR KMSS 201653Z AUTO 25006KT 1 1/2SM -SN BR BKN019 OVC027 M06/M07 A2993 RMK
                 AO2 SLP143 P0000 T10561072 =
2017-11-20 11:44 METAR KMSS 201644Z AUTO 24007KT 2SM -SN BR BKN026 OVC033 M06/M08 A2993 RMK AO2
                 P0000 T10561078 =
2017-11-20 11:36 METAR KMSS 201636Z AUTO 26008KT 3SM -SN BR BKN026 OVC033 M06/M08 A2993 RMK AO2
                 P0000 T10561078 =
2017-11-20 11:09 METAR KMSS 201609Z AUTO 26009KT 2 1/2SM -SN BR BKN022 OVC032 M06/M08 A2993 RMK
                 AO2 P0000 T10561078 =
2017-11-20 11:02 METAR KMSS 201602Z AUTO 26008KT 1 3/4SM -SN BR BKN020 OVC034 M06/M08 A2994 RMK
                 AO2 P0000 T10561078 =
2017-11-20 10:53 METAR KMSS 201553Z AUTO 27010KT 1 1/4SM -SN BR BKN020 BKN024 OVC034 M06/M08
                 A2994 RMK AO2 SLP145 P0000 T10561078 =
2017-11-20 10:49 METAR KMSS 201549Z AUTO 27009KT 1 1/4SM -SN BR BKN020 BKN024 OVC034 M06/M08
                 A2994 RMK AO2 P0000 =
2017-11-20 10:41 METAR KMSS 201541Z AUTO 27010KT 2 1/2SM -SN FEW022 BKN027 OVC043 M06/M08 A2994
                 RMK AO2 P0000 T10561083 =
2017-11-20 09:53 METAR KMSS 201453Z AUTO 24006KT 3SM -SN OVC040 M06/M08 A2993 RMK AO2 SNB1359
                 SLP142 P0000 60000 T10561083 50006 =
2017-11-20 08:53 METAR KMSS 201353Z AUTO 23007KT 10SM FEW055 OVC075 M06/M09 A2993 RMK AO2 SLP142
                 T10611094 =
2017-11-20 07:53 METAR KMSS 201253Z AUTO 23007KT 10SM OVC070 M07/M11 A2993 RMK AO2 SLP141
                 T10671106 =
2017-11-20 06:53 METAR KMSS 201153Z AUTO 25011KT 10SM OVC060 M07/M11 A2991 RMK AO2 SLP136 60000
                 70004 T10671111 11028 21072 53031 =
2017-11-20 05:53 METAR KMSS 201053Z AUTO 26014KT 10SM CLR M07/M11 A2989 RMK AO2 SLP127 T10671111
                 =
2017-11-20 05:34 METAR KMSS 201034Z AUTO 28019G23KT 10SM SCT027 BKN034 M07/M11 A2986 RMK AO2
                 T10671106 =
2017-11-20 05:05 METAR KMSS 201005Z AUTO 26012KT 10SM BKN026 BKN038 OVC045 M06/M09 A2984 RMK AO2
                 T10611094 =
2017-11-20 04:53 METAR KMSS 200953Z AUTO 25009KT 10SM FEW027 OVC044 M06/M10 A2984 RMK AO2 SNE13
                 SLP112 P0000 T10611100 =
2017-11-20 03:53 METAR KMSS 200853Z AUTO 27014KT 9SM -SN FEW026 OVC048 M06/M09 A2982 RMK AO2
                 SNB31 SLP104 P0000 60000 T10561094 51027 =
2017-11-20 02:53 METAR KMSS 200753Z AUTO 29017G24KT 10SM SCT036 OVC046 M05/M09 A2980 RMK AO2
                 SNE23 SLP098 P0000 T10501089 =
2017-11-20 01:53 METAR KMSS 200653Z AUTO 29012G18KT 5SM -SN BR FEW016 BKN032 OVC039 M04/M06 A2976
                 RMK AO2 PK WND 28026/0625 SLP085 P0000 T10391061 =
2017-11-20 01:40 METAR KMSS 200640Z AUTO 29012KT 3SM -SN BR FEW016 BKN030 OVC044 M04/M06 A2976
                 RMK AO2 PK WND 28026/0625 P0000 T10391061 =
2017-11-20 01:26 METAR KMSS 200626Z AUTO 29017G26KT 3SM -SN BR BKN016 BKN021 OVC028 M04/M06 A2975
                 RMK AO2 PK WND 28026/0625 P0000 T10391056 =
2017-11-20 01:18 METAR KMSS 200618Z AUTO 27014G21KT 2 1/2SM -SN BR SCT016 BKN021 OVC028 M03/M06
                 A2975 RMK AO2 P0000 T10331056 =
2017-11-20 01:06 METAR KMSS 200606Z AUTO 28014G20KT 3SM -SN BR BKN018 OVC032 M03/M05 A2974 RMK
                 AO2 P0000 T10331050 =
2017-11-20 00:53 METAR KMSS 200553Z AUTO 27009KT 4SM -SN BR SCT020 SCT025 OVC036 M03/M05 A2974
                 RMK AO2 SNB27 SLP076 P0000 60000 T10281050 11011 21028 53015 =
2017-11-19 23:53 METAR KMSS 200453Z AUTO 27011KT 10SM BKN060 BKN075 OVC090 M03/M06 A2972 RMK AO2
                 SLP071 T10281056 400171028 =
2017-11-19 22:53 METAR KMSS 200353Z AUTO 27011KT 10SM OVC090 M02/M06 A2971 RMK AO2 SLP066
                 T10221056 =
2017-11-19 21:53 METAR KMSS 200253Z AUTO 28010KT 10SM FEW028 OVC085 M02/M06 A2969 RMK AO2 SLP061
                 T10221056 51019 =
2017-11-19 21:42 METAR KMSS 200242Z AUTO 29010G18KT 10SM FEW027 BKN080 OVC090 M02/M06 A2969 RMK
                 AO2 T10221056 =
2017-11-19 21:35 METAR KMSS 200235Z AUTO 29010G17KT 10SM BKN027 BKN065 OVC090 M02/M06 A2969 RMK
                 AO2 T10221056 =
2017-11-19 21:00 METAR KMSS 200200Z AUTO 28015G19KT 10SM SCT025 BKN065 OVC095 M02/M06 A2968 RMK
                 AO2 T10221056 =
2017-11-19 20:53 METAR KMSS 200153Z AUTO 27011G18KT 10SM BKN027 OVC095 M02/M05 A2967 RMK AO2
                 SLP055 T10221050 =
2017-11-19 20:21 METAR KMSS 200121Z AUTO 27012G21KT 10SM BKN026 OVC033 M02/M05 A2966 RMK AO2
                 T10171050 =
2017-11-19 19:53 METAR KMSS 200053Z AUTO 27011G22KT 10SM FEW024 OVC032 M02/M04 A2966 RMK AO2
                 SLP048 T10171044 =
2017-11-19 19:38 METAR KMSS 200038Z AUTO 27012KT 10SM OVC030 M01/M04 A2965 RMK AO2 T10111044 =
2017-11-19 18:53 METAR KMSS 192353Z AUTO 27014G20KT 10SM BKN029 OVC034 M01/M04 A2964 RMK AO2
                 SLP041 60000 T10111044 10000 21011 51017 =
2017-11-19 17:53 METAR KMSS 192253Z AUTO 27015G27KT 10SM FEW022 OVC031 M01/M04 A2961 RMK AO2 PK
                 WND 28027/2244 SNE15 SLP032 P0000 T10061039 =
2017-11-19 17:50 METAR KMSS 192250Z AUTO 27017G27KT 10SM FEW022 OVC031 M01/M04 A2961 RMK AO2 PK
                 WND 28027/2244 SNE15 P0000 =
2017-11-19 17:09 METAR KMSS 192209Z AUTO 27012KT 9SM -SN BKN026 OVC035 M01/M03 A2959 RMK AO2
                 P0000 T10061028 =
2017-11-19 16:53 METAR KMSS 192153Z AUTO 27012G19KT 10SM -SN FEW023 SCT029 OVC034 M01/M03 A2958
                 RMK AO2 SNB50 SLP023 P0000 T10061033 $ =
2017-11-19 15:53 METAR KMSS 192053Z AUTO 25010G17KT 10SM OVC035 M01/M03 A2956 RMK AO2 SLP015
                 T10061028 51034 $ =
2017-11-19 14:53 METAR KMSS 191953Z AUTO 27013KT 10SM FEW025 FEW030 OVC037 M01/M03 A2953 RMK AO2
                 SLP005 T10061028 $ =
2017-11-19 14:36 METAR KMSS 191936Z AUTO 26009G17KT 10SM SCT030 OVC036 M01/M03 A2952 RMK AO2
                 T10061033 $ =

Support USWX by starting your Amazon purchase here.